createdAt,value
2017-05-27T15:18:06.569Z,3.68
2017-05-27T15:20:34.328Z,1.54
2017-05-27T15:23:02.160Z,1.54
2017-05-27T15:25:29.730Z,1.48
2017-05-27T15:27:57.347Z,1.80
2017-05-27T15:30:25.980Z,1.70
2017-05-27T15:32:54.174Z,2.32
2017-05-27T15:35:22.671Z,2.90
2017-05-27T15:37:51.089Z,2.74
2017-05-27T15:40:18.676Z,2.30
2017-05-27T15:42:47.163Z,2.62
2017-05-27T15:45:14.998Z,2.02
2017-05-27T15:47:43.183Z,2.62
2017-05-27T15:50:11.662Z,2.48
2017-05-27T15:52:39.262Z,1.90
2017-05-27T15:55:07.189Z,2.88
2017-05-27T15:57:34.753Z,2.12
2017-05-27T16:00:02.565Z,2.84
2017-05-27T16:02:30.705Z,2.34
2017-05-27T16:04:59.103Z,2.62
2017-05-27T16:07:26.766Z,2.92
2017-05-27T16:09:54.852Z,2.46
2017-05-27T16:12:22.407Z,3.00
2017-05-27T16:14:50.228Z,2.78
2017-05-27T16:17:17.835Z,2.74
2017-05-27T16:19:46.142Z,2.66
2017-05-27T16:22:14.254Z,2.70
2017-05-27T16:24:41.876Z,4.12
2017-05-27T16:27:09.431Z,2.90
2017-05-27T16:29:37.037Z,2.20
2017-05-27T16:32:05.359Z,2.60
2017-05-27T16:34:32.920Z,2.48
2017-05-27T16:37:00.484Z,2.20
2017-05-27T16:39:28.093Z,2.80
2017-05-27T16:41:56.971Z,3.00
2017-05-27T16:44:25.489Z,2.80
2017-05-27T16:46:53.166Z,2.28
2017-05-27T16:49:20.769Z,4.06
2017-05-27T16:51:48.322Z,1.94
2017-05-27T16:54:15.943Z,2.24
2017-05-27T16:56:43.490Z,1.90
2017-05-27T16:59:11.426Z,2.46
2017-05-27T17:01:39.363Z,2.44
2017-05-27T17:04:07.108Z,2.26
2017-05-27T17:06:34.698Z,2.50
2017-05-27T17:09:03.279Z,2.88
2017-05-27T17:11:31.698Z,2.30
2017-05-27T17:13:59.423Z,2.88
2017-05-27T17:16:27.075Z,2.82
2017-05-27T17:18:54.685Z,3.12
2017-05-27T17:21:22.255Z,3.02
2017-05-27T17:23:49.868Z,3.12
2017-05-27T17:26:17.458Z,2.24
2017-05-27T17:28:45.022Z,2.68
2017-05-27T17:31:12.606Z,2.58
2017-05-27T17:33:40.163Z,2.42
2017-05-27T17:36:07.921Z,2.96
2017-05-27T17:38:35.586Z,3.66
2017-05-27T17:41:03.534Z,3.76
2017-05-27T17:43:31.078Z,3.34
2017-05-27T17:45:59.495Z,4.10
2017-05-27T17:48:27.048Z,3.64
2017-05-27T17:50:54.994Z,3.76
2017-05-27T17:53:22.595Z,2.90
2017-05-27T17:55:50.130Z,2.78
2017-05-27T17:58:17.666Z,2.60
2017-05-27T18:00:45.962Z,3.10
2017-05-27T18:03:13.496Z,2.50
2017-05-27T18:05:41.042Z,2.40
2017-05-27T18:08:08.615Z,3.40
2017-05-27T18:10:36.222Z,3.32
2017-05-27T18:13:03.874Z,2.10
2017-05-27T18:15:32.318Z,3.20
2017-05-27T18:17:59.873Z,3.52
2017-05-27T18:20:27.716Z,3.70
2017-05-27T18:22:55.296Z,4.14
2017-05-27T18:25:22.838Z,2.98
2017-05-27T18:27:50.402Z,3.38
2017-05-27T18:30:18.098Z,6.08
2017-05-27T18:32:45.638Z,7.02
2017-05-27T18:35:13.458Z,5.08
2017-05-27T18:37:41.081Z,5.30
2017-05-27T18:40:08.617Z,4.34
2017-05-27T18:42:36.181Z,11.02
2017-05-27T18:45:03.818Z,5.60
2017-05-27T18:47:31.382Z,6.70
2017-05-27T18:49:58.931Z,6.06
2017-05-27T18:52:26.544Z,6.30
2017-05-27T18:54:54.101Z,6.70
2017-05-27T18:57:21.658Z,6.68
2017-05-27T18:59:49.273Z,7.30
2017-05-27T19:02:16.893Z,8.04
2017-05-27T19:04:44.766Z,7.90
2017-05-27T19:07:12.831Z,6.60
2017-05-27T19:09:40.427Z,4.36
2017-05-27T19:12:08.831Z,6.04
2017-05-27T19:14:36.403Z,5.98
2017-05-27T19:17:04.859Z,5.40
2017-05-27T19:19:32.405Z,3.84
2017-05-27T19:21:59.975Z,5.52
2017-05-27T19:24:27.789Z,4.76
2017-05-27T19:26:55.377Z,3.52
2017-05-27T19:29:22.935Z,4.40
2017-05-27T19:31:50.514Z,3.90
2017-05-27T19:34:18.120Z,4.20
2017-05-27T19:36:45.667Z,3.96
2017-05-27T19:39:13.291Z,4.68
2017-05-27T19:41:40.862Z,5.40
2017-05-27T19:44:08.408Z,4.56
2017-05-27T19:46:36.014Z,5.44
2017-05-27T19:49:04.153Z,6.20
2017-05-27T19:51:31.767Z,7.40
2017-05-27T19:53:59.366Z,6.92
2017-05-27T19:56:27.155Z,6.18
2017-05-27T19:58:54.791Z,8.36
2017-05-27T20:01:22.545Z,6.68
2017-05-27T20:03:50.487Z,4.06
2017-05-27T20:06:18.155Z,2.74
2017-05-27T20:08:45.758Z,4.04
2017-05-27T20:11:13.319Z,3.34
2017-05-27T20:13:40.983Z,3.06
2017-05-27T20:16:08.582Z,4.42
2017-05-27T20:18:36.135Z,3.74
2017-05-27T20:21:03.700Z,5.78
2017-05-27T20:23:31.304Z,4.74
2017-05-27T20:25:59.142Z,6.00
2017-05-27T20:28:27.000Z,8.00
2017-05-27T20:30:54.734Z,7.00
2017-05-27T20:33:22.276Z,6.26
2017-05-27T20:35:50.040Z,5.60
2017-05-27T20:38:17.808Z,5.74
2017-05-27T20:40:45.750Z,6.68
2017-05-27T20:43:13.311Z,10.26
2017-05-27T20:45:40.918Z,8.52
2017-05-27T20:48:08.486Z,9.52
2017-05-27T20:50:36.057Z,11.52
2017-05-27T20:53:03.645Z,8.90
2017-05-27T20:55:31.189Z,6.74
2017-05-27T20:57:58.737Z,7.92
2017-05-27T21:00:26.466Z,8.24
2017-05-27T21:02:54.427Z,6.64
2017-05-27T21:05:21.988Z,8.22
2017-05-27T21:07:49.711Z,6.28
2017-05-27T21:10:17.310Z,5.98
2017-05-27T21:12:44.868Z,6.66
2017-05-27T21:15:12.459Z,6.58
2017-05-27T21:17:40.011Z,6.28
2017-05-27T21:20:07.567Z,8.78
2017-05-27T21:22:35.148Z,6.20
2017-05-27T21:25:03.022Z,10.04
2017-05-27T21:27:30.890Z,9.50
2017-05-27T21:29:58.515Z,7.44
2017-05-27T21:32:26.116Z,7.16
2017-05-27T21:34:53.978Z,9.04
2017-05-27T21:37:22.407Z,7.76
2017-05-27T21:39:50.054Z,8.02
2017-05-27T21:42:17.867Z,6.30
2017-05-27T21:44:45.718Z,7.98
2017-05-27T21:47:13.318Z,8.38
2017-05-27T21:49:40.872Z,6.92
2017-05-27T21:52:08.422Z,8.10
2017-05-27T21:54:36.041Z,8.68
2017-05-27T21:57:03.608Z,10.50
2017-05-27T21:59:31.638Z,9.66
2017-05-27T22:01:59.242Z,9.04
2017-05-27T22:04:26.794Z,9.76
2017-05-27T22:06:54.381Z,10.00
2017-05-27T22:09:21.973Z,9.80
2017-05-27T22:11:49.842Z,8.50
2017-05-27T22:14:17.703Z,7.92
2017-05-27T22:16:45.528Z,6.78
2017-05-27T22:19:13.264Z,7.36
2017-05-27T22:21:40.826Z,7.28
2017-05-27T22:24:08.414Z,5.70
2017-05-27T22:26:35.967Z,4.74
2017-05-27T22:29:03.522Z,3.54
2017-05-27T22:31:31.130Z,3.50
2017-05-27T22:33:58.673Z,3.62
2017-05-27T22:36:26.235Z,3.02
2017-05-27T22:38:53.823Z,3.02
2017-05-27T22:41:21.375Z,3.24
2017-05-27T22:43:49.653Z,3.00
2017-05-27T22:46:17.386Z,3.32
2017-05-27T22:48:44.936Z,3.34
2017-05-27T22:51:12.747Z,3.38
2017-05-27T22:53:40.344Z,3.40
2017-05-27T22:56:07.886Z,2.90
2017-05-27T22:58:35.498Z,3.00
2017-05-27T23:01:03.613Z,3.44
2017-05-27T23:03:31.158Z,3.32
2017-05-27T23:05:58.711Z,3.24
2017-05-27T23:08:26.296Z,3.44
2017-05-27T23:10:53.902Z,3.20
2017-05-27T23:13:21.451Z,2.90
2017-05-27T23:15:49.118Z,3.28
2017-05-27T23:18:17.008Z,3.28
2017-05-27T23:20:44.581Z,3.64
2017-05-27T23:23:12.204Z,3.24
2017-05-27T23:25:39.761Z,3.34
2017-05-27T23:28:07.355Z,3.90
2017-05-27T23:30:35.113Z,5.54
2017-05-27T23:33:02.653Z,4.54
2017-05-27T23:35:30.242Z,4.90
2017-05-27T23:37:58.964Z,6.06
2017-05-27T23:40:26.627Z,6.14
2017-05-27T23:42:54.326Z,5.42
2017-05-27T23:45:21.906Z,5.70
2017-05-27T23:47:49.686Z,5.22
2017-05-27T23:50:17.243Z,6.10
2017-05-27T23:52:44.866Z,6.14
2017-05-27T23:55:12.656Z,4.80
2017-05-27T23:57:40.199Z,5.20
